YBSU

Maroochydore/Sunshine Coast Airport

Airport
ICAO code
YBSU
Summary
ICAO Region
APAC
ICAO Territory
Location

Marcoola, Queensland

Serving
Marcoola
Coordinates
26° 36' 11" S , 153° 5' 31" E
KCC
Metar
Observation
YBSU 091830Z AUTO 11008KT 9999 // SCT028 BKN054 22/17 Q1012
Station
Sunshine Coast Airport
Date/Time
2022-12-09 18:30:00
Wind direction
110°
Wind speed
08 kts
Lowest cloud amount
scattered clouds
Temperature
22°C
Dew point
17°C
Humidity
73%
QNH
1012 hPa
Weather condition
n/a

Sunshine Coast Airport is an Australian airport serving Sunshine Coast, Queensland. It is the gateway to holiday destinations such as Noosa, Maroochydore, Mooloolaba and Caloundra. There are direct daily flights to Sydney and Melbourne, with frequent connecting flights to both domestic and international ports.

The Sunshine Coast Airport is situated at Marcoola, 10 km north of Maroochydore.

Note

On 3 June 2010, the airport changed its name from 'Maroochydore-Sunshine Coast Airport' to Sunshine Coast Airport and changed it's ICAO Code from YBMC to YBSU.

Climatology

Humid “subtropical” climate (Köppen climate classification Cfa) - characterized by hot, humid summers and cool winters. Significant amounts of precipitation occur in all seasons in most areas. Most summer rainfall occurs during thunderstorms and occasional tropical storms.

Airport map

Aerial View

SKYbrary Partners:

Safety knowledge contributed by: